sensor_id;sensor_type;location;lat;lon;timestamp;P1;durP1;ratioP1;P2;durP2;ratioP2
4422;SDS011;2224;49.814;8.650;2024-01-15T00:00:12;44.17;;;20.87;;
4422;SDS011;2224;49.814;8.650;2024-01-15T00:02:38;42.40;;;18.50;;
4422;SDS011;2224;49.814;8.650;2024-01-15T00:05:03;38.60;;;20.07;;
4422;SDS011;2224;49.814;8.650;2024-01-15T00:07:29;35.90;;;16.80;;
4422;SDS011;2224;49.814;8.650;2024-01-15T00:09:54;38.93;;;18.47;;
4422;SDS011;2224;49.814;8.650;2024-01-15T00:12:19;36.53;;;19.83;;
4422;SDS011;2224;49.814;8.650;2024-01-15T00:14:45;43.37;;;19.67;;
4422;SDS011;2224;49.814;8.650;2024-01-15T00:17:10;42.33;;;20.97;;
4422;SDS011;2224;49.814;8.650;2024-01-15T00:19:35;47.77;;;23.00;;
4422;SDS011;2224;49.814;8.650;2024-01-15T00:22:01;52.60;;;21.57;;
4422;SDS011;2224;49.814;8.650;2024-01-15T00:24:26;46.63;;;22.13;;
4422;SDS011;2224;49.814;8.650;2024-01-15T00:26:51;54.13;;;22.00;;
4422;SDS011;2224;49.814;8.650;2024-01-15T00:29:18;42.35;;;20.50;;
4422;SDS011;2224;49.814;8.650;2024-01-15T00:31:43;42.93;;;21.80;;
4422;SDS011;2224;49.814;8.650;2024-01-15T00:34:09;45.23;;;19.60;;
4422;SDS011;2224;49.814;8.650;2024-01-15T00:36:34;40.37;;;21.03;;
4422;SDS011;2224;49.814;8.650;2024-01-15T00:38:59;42.47;;;20.37;;
4422;SDS011;2224;49.814;8.650;2024-01-15T00:41:25;44.43;;;20.93;;
4422;SDS011;2224;49.814;8.650;2024-01-15T00:43:52;45.55;;;19.98;;
4422;SDS011;2224;49.814;8.650;2024-01-15T00:46:17;39.30;;;19.57;;
4422;SDS011;2224;49.814;8.650;2024-01-15T00:48:43;49.33;;;21.03;;
4422;SDS011;2224;49.814;8.650;2024-01-15T00:51:08;45.72;;;20.58;;
4422;SDS011;2224;49.814;8.650;2024-01-15T00:53:34;46.57;;;18.70;;
4422;SDS011;2224;49.814;8.650;2024-01-15T00:55:59;51.63;;;21.50;;
4422;SDS011;2224;49.814;8.650;2024-01-15T00:58:25;45.70;;;17.53;;
4422;SDS011;2224;49.814;8.650;2024-01-15T01:00:51;47.72;;;20.50;;
4422;SDS011;2224;49.814;8.650;2024-01-15T01:03:16;48.97;;;20.03;;
4422;SDS011;2224;49.814;8.650;2024-01-15T01:05:41;43.13;;;19.57;;
4422;SDS011;2224;49.814;8.650;2024-01-15T01:08:07;49.17;;;20.10;;
4422;SDS011;2224;49.814;8.650;2024-01-15T01:10:32;46.13;;;19.67;;
4422;SDS011;2224;49.814;8.650;2024-01-15T01:12:57;38.00;;;18.87;;
4422;SDS011;2224;49.814;8.650;2024-01-15T01:15:23;34.43;;;18.50;;
4422;SDS011;2224;49.814;8.650;2024-01-15T01:17:49;36.67;;;19.55;;
4422;SDS011;2224;49.814;8.650;2024-01-15T01:20:15;40.63;;;17.60;;
4422;SDS011;2224;49.814;8.650;2024-01-15T01:22:40;44.63;;;19.00;;
4422;SDS011;2224;49.814;8.650;2024-01-15T01:25:06;35.37;;;17.40;;
4422;SDS011;2224;49.814;8.650;2024-01-15T01:27:31;39.83;;;18.70;;
4422;SDS011;2224;49.814;8.650;2024-01-15T01:29:57;37.07;;;19.27;;
4422;SDS011;2224;49.814;8.650;2024-01-15T01:32:22;35.97;;;18.23;;
4422;SDS011;2224;49.814;8.650;2024-01-15T01:34:47;42.77;;;19.00;;
4422;SDS011;2224;49.814;8.650;2024-01-15T01:37:13;35.03;;;19.23;;
4422;SDS011;2224;49.814;8.650;2024-01-15T01:39:39;43.92;;;18.98;;
4422;SDS011;2224;49.814;8.650;2024-01-15T01:42:05;35.40;;;18.10;;
4422;SDS011;2224;49.814;8.650;2024-01-15T01:44:30;35.40;;;17.50;;
4422;SDS011;2224;49.814;8.650;2024-01-15T01:46:55;41.30;;;18.23;;
4422;SDS011;2224;49.814;8.650;2024-01-15T01:49:22;35.22;;;17.90;;
4422;SDS011;2224;49.814;8.650;2024-01-15T01:51:48;44.58;;;18.73;;
4422;SDS011;2224;49.814;8.650;2024-01-15T01:54:14;33.43;;;17.30;;
4422;SDS011;2224;49.814;8.650;2024-01-15T01:56:40;42.70;;;18.87;;
4422;SDS011;2224;49.814;8.650;2024-01-15T01:59:06;39.17;;;16.60;;
4422;SDS011;2224;49.814;8.650;2024-01-15T02:01:32;37.10;;;18.48;;
4422;SDS011;2224;49.814;8.650;2024-01-15T02:03:58;35.13;;;19.00;;
4422;SDS011;2224;49.814;8.650;2024-01-15T02:06:24;40.23;;;18.80;;
4422;SDS011;2224;49.814;8.650;2024-01-15T02:08:49;37.50;;;17.77;;
4422;SDS011;2224;49.814;8.650;2024-01-15T02:11:15;37.97;;;18.67;;
4422;SDS011;2224;49.814;8.650;2024-01-15T02:13:40;35.90;;;18.00;;
4422;SDS011;2224;49.814;8.650;2024-01-15T02:16:06;28.50;;;15.83;;
4422;SDS011;2224;49.814;8.650;2024-01-15T02:18:44;34.20;;;16.13;;
4422;SDS011;2224;49.814;8.650;2024-01-15T02:21:11;37.00;;;16.58;;
4422;SDS011;2224;49.814;8.650;2024-01-15T02:23:37;28.27;;;16.70;;
4422;SDS011;2224;49.814;8.650;2024-01-15T02:26:03;28.40;;;15.70;;
4422;SDS011;2224;49.814;8.650;2024-01-15T02:28:29;31.90;;;16.08;;
4422;SDS011;2224;49.814;8.650;2024-01-15T02:30:55;39.70;;;16.20;;
4422;SDS011;2224;49.814;8.650;2024-01-15T02:33:20;39.37;;;18.60;;
4422;SDS011;2224;49.814;8.650;2024-01-15T02:35:46;39.53;;;18.43;;
4422;SDS011;2224;49.814;8.650;2024-01-15T02:38:11;37.80;;;17.50;;
4422;SDS011;2224;49.814;8.650;2024-01-15T02:40:37;40.33;;;18.60;;
4422;SDS011;2224;49.814;8.650;2024-01-15T02:43:03;35.05;;;16.08;;
4422;SDS011;2224;49.814;8.650;2024-01-15T02:45:29;35.63;;;17.50;;
4422;SDS011;2224;49.814;8.650;2024-01-15T02:47:54;32.33;;;16.80;;
4422;SDS011;2224;49.814;8.650;2024-01-15T02:50:20;36.37;;;17.80;;
4422;SDS011;2224;49.814;8.650;2024-01-15T02:52:45;32.33;;;15.80;;
4422;SDS011;2224;49.814;8.650;2024-01-15T02:55:10;31.53;;;16.80;;
4422;SDS011;2224;49.814;8.650;2024-01-15T02:57:36;30.90;;;15.27;;
4422;SDS011;2224;49.814;8.650;2024-01-15T03:00:01;31.20;;;15.10;;
4422;SDS011;2224;49.814;8.650;2024-01-15T03:02:27;29.55;;;14.85;;
4422;SDS011;2224;49.814;8.650;2024-01-15T03:04:52;30.50;;;16.17;;
4422;SDS011;2224;49.814;8.650;2024-01-15T03:07:18;33.37;;;14.70;;
4422;SDS011;2224;49.814;8.650;2024-01-15T03:09:43;34.23;;;15.00;;
4422;SDS011;2224;49.814;8.650;2024-01-15T03:12:09;30.80;;;16.50;;
4422;SDS011;2224;49.814;8.650;2024-01-15T03:14:34;33.20;;;15.97;;
4422;SDS011;2224;49.814;8.650;2024-01-15T03:17:00;33.05;;;16.25;;
4422;SDS011;2224;49.814;8.650;2024-01-15T03:19:26;28.33;;;15.80;;
4422;SDS011;2224;49.814;8.650;2024-01-15T03:21:51;29.73;;;16.17;;
4422;SDS011;2224;49.814;8.650;2024-01-15T03:24:16;32.30;;;16.47;;
4422;SDS011;2224;49.814;8.650;2024-01-15T03:26:42;32.10;;;16.43;;
4422;SDS011;2224;49.814;8.650;2024-01-15T03:29:07;31.53;;;14.50;;
4422;SDS011;2224;49.814;8.650;2024-01-15T03:31:32;30.83;;;15.60;;
4422;SDS011;2224;49.814;8.650;2024-01-15T03:33:58;30.93;;;15.83;;
4422;SDS011;2224;49.814;8.650;2024-01-15T03:36:23;37.77;;;16.40;;
4422;SDS011;2224;49.814;8.650;2024-01-15T03:38:48;28.73;;;14.80;;
4422;SDS011;2224;49.814;8.650;2024-01-15T03:41:14;29.33;;;15.20;;
4422;SDS011;2224;49.814;8.650;2024-01-15T03:43:39;30.37;;;16.13;;
4422;SDS011;2224;49.814;8.650;2024-01-15T03:46:05;27.27;;;14.60;;
4422;SDS011;2224;49.814;8.650;2024-01-15T03:48:30;30.97;;;15.97;;
4422;SDS011;2224;49.814;8.650;2024-01-15T03:50:55;37.20;;;16.37;;
4422;SDS011;2224;49.814;8.650;2024-01-15T03:53:21;31.63;;;14.97;;
4422;SDS011;2224;49.814;8.650;2024-01-15T03:55:46;32.30;;;15.47;;
4422;SDS011;2224;49.814;8.650;2024-01-15T03:58:12;30.23;;;16.40;;
4422;SDS011;2224;49.814;8.650;2024-01-15T04:00:39;38.75;;;16.88;;
4422;SDS011;2224;49.814;8.650;2024-01-15T04:03:05;30.10;;;14.00;;
4422;SDS011;2224;49.814;8.650;2024-01-15T04:05:30;29.43;;;15.70;;
4422;SDS011;2224;49.814;8.650;2024-01-15T04:07:55;33.90;;;16.47;;
4422;SDS011;2224;49.814;8.650;2024-01-15T04:10:21;37.97;;;16.97;;
4422;SDS011;2224;49.814;8.650;2024-01-15T04:12:46;32.53;;;15.10;;
4422;SDS011;2224;49.814;8.650;2024-01-15T04:15:12;29.80;;;15.17;;
4422;SDS011;2224;49.814;8.650;2024-01-15T04:17:37;34.80;;;14.50;;
4422;SDS011;2224;49.814;8.650;2024-01-15T04:20:03;35.33;;;14.70;;
4422;SDS011;2224;49.814;8.650;2024-01-15T04:22:29;22.13;;;13.07;;
4422;SDS011;2224;49.814;8.650;2024-01-15T04:24:54;28.83;;;14.00;;
4422;SDS011;2224;49.814;8.650;2024-01-15T04:27:19;31.80;;;15.23;;
4422;SDS011;2224;49.814;8.650;2024-01-15T04:29:45;31.70;;;15.80;;
4422;SDS011;2224;49.814;8.650;2024-01-15T04:32:10;34.47;;;17.13;;
4422;SDS011;2224;49.814;8.650;2024-01-15T04:34:36;31.40;;;16.30;;
4422;SDS011;2224;49.814;8.650;2024-01-15T04:37:01;30.87;;;15.30;;
4422;SDS011;2224;49.814;8.650;2024-01-15T04:39:26;32.03;;;15.23;;
4422;SDS011;2224;49.814;8.650;2024-01-15T04:41:52;25.50;;;13.80;;
4422;SDS011;2224;49.814;8.650;2024-01-15T04:44:18;29.17;;;14.77;;
4422;SDS011;2224;49.814;8.650;2024-01-15T04:46:43;31.65;;;15.10;;
4422;SDS011;2224;49.814;8.650;2024-01-15T04:49:09;29.33;;;13.77;;
4422;SDS011;2224;49.814;8.650;2024-01-15T04:51:35;28.25;;;14.18;;
4422;SDS011;2224;49.814;8.650;2024-01-15T04:54:01;35.90;;;17.90;;
4422;SDS011;2224;49.814;8.650;2024-01-15T04:56:26;31.30;;;15.20;;
4422;SDS011;2224;49.814;8.650;2024-01-15T04:58:51;30.63;;;15.73;;
4422;SDS011;2224;49.814;8.650;2024-01-15T05:01:17;31.90;;;16.10;;
4422;SDS011;2224;49.814;8.650;2024-01-15T05:03:42;30.67;;;15.80;;
4422;SDS011;2224;49.814;8.650;2024-01-15T05:06:08;32.57;;;14.40;;
4422;SDS011;2224;49.814;8.650;2024-01-15T05:08:33;28.00;;;14.27;;
4422;SDS011;2224;49.814;8.650;2024-01-15T05:10:58;26.90;;;14.77;;
4422;SDS011;2224;49.814;8.650;2024-01-15T05:13:24;26.93;;;14.33;;
4422;SDS011;2224;49.814;8.650;2024-01-15T05:15:49;31.87;;;15.30;;
4422;SDS011;2224;49.814;8.650;2024-01-15T05:18:14;29.70;;;15.37;;
4422;SDS011;2224;49.814;8.650;2024-01-15T05:20:40;26.47;;;13.17;;
4422;SDS011;2224;49.814;8.650;2024-01-15T05:23:05;31.90;;;13.40;;
4422;SDS011;2224;49.814;8.650;2024-01-15T05:25:31;33.87;;;14.87;;
4422;SDS011;2224;49.814;8.650;2024-01-15T05:27:56;24.60;;;13.33;;
4422;SDS011;2224;49.814;8.650;2024-01-15T05:30:22;28.23;;;14.50;;
4422;SDS011;2224;49.814;8.650;2024-01-15T05:32:47;26.90;;;13.53;;
4422;SDS011;2224;49.814;8.650;2024-01-15T05:35:12;31.07;;;16.60;;
4422;SDS011;2224;49.814;8.650;2024-01-15T05:37:39;27.00;;;15.10;;
4422;SDS011;2224;49.814;8.650;2024-01-15T05:40:08;30.20;;;14.07;;
4422;SDS011;2224;49.814;8.650;2024-01-15T05:42:33;29.50;;;14.80;;
4422;SDS011;2224;49.814;8.650;2024-01-15T05:44:59;33.00;;;14.60;;
4422;SDS011;2224;49.814;8.650;2024-01-15T05:47:24;27.57;;;15.33;;
4422;SDS011;2224;49.814;8.650;2024-01-15T05:49:50;35.87;;;14.83;;
4422;SDS011;2224;49.814;8.650;2024-01-15T05:52:15;31.83;;;15.27;;
4422;SDS011;2224;49.814;8.650;2024-01-15T05:54:41;28.30;;;13.93;;
4422;SDS011;2224;49.814;8.650;2024-01-15T05:57:06;29.57;;;14.40;;
4422;SDS011;2224;49.814;8.650;2024-01-15T05:59:31;30.17;;;16.17;;
4422;SDS011;2224;49.814;8.650;2024-01-15T06:01:59;28.02;;;14.43;;
4422;SDS011;2224;49.814;8.650;2024-01-15T06:04:24;40.57;;;17.40;;
4422;SDS011;2224;49.814;8.650;2024-01-15T06:06:49;29.97;;;15.93;;
4422;SDS011;2224;49.814;8.650;2024-01-15T06:09:15;31.73;;;13.63;;
4422;SDS011;2224;49.814;8.650;2024-01-15T06:11:40;30.73;;;16.10;;
4422;SDS011;2224;49.814;8.650;2024-01-15T06:14:05;32.83;;;14.63;;
4422;SDS011;2224;49.814;8.650;2024-01-15T06:16:31;28.00;;;13.90;;
4422;SDS011;2224;49.814;8.650;2024-01-15T06:18:56;30.23;;;15.10;;
4422;SDS011;2224;49.814;8.650;2024-01-15T06:21:21;34.83;;;16.60;;
4422;SDS011;2224;49.814;8.650;2024-01-15T06:23:47;31.43;;;16.13;;
4422;SDS011;2224;49.814;8.650;2024-01-15T06:26:12;29.03;;;13.47;;
4422;SDS011;2224;49.814;8.650;2024-01-15T06:28:37;27.97;;;14.73;;
4422;SDS011;2224;49.814;8.650;2024-01-15T06:31:03;25.80;;;13.73;;
4422;SDS011;2224;49.814;8.650;2024-01-15T06:33:29;30.97;;;15.73;;
4422;SDS011;2224;49.814;8.650;2024-01-15T06:35:54;27.50;;;15.70;;
4422;SDS011;2224;49.814;8.650;2024-01-15T06:38:19;35.13;;;15.30;;
4422;SDS011;2224;49.814;8.650;2024-01-15T06:40:45;28.87;;;15.23;;
4422;SDS011;2224;49.814;8.650;2024-01-15T06:43:13;26.73;;;16.60;;
4422;SDS011;2224;49.814;8.650;2024-01-15T06:45:40;29.65;;;14.73;;
4422;SDS011;2224;49.814;8.650;2024-01-15T06:48:06;36.33;;;15.67;;
4422;SDS011;2224;49.814;8.650;2024-01-15T06:50:32;27.17;;;15.27;;
4422;SDS011;2224;49.814;8.650;2024-01-15T06:52:58;24.97;;;13.17;;
4422;SDS011;2224;49.814;8.650;2024-01-15T06:55:23;31.50;;;14.17;;
4422;SDS011;2224;49.814;8.650;2024-01-15T06:57:48;27.47;;;14.00;;
4422;SDS011;2224;49.814;8.650;2024-01-15T07:00:14;24.97;;;13.40;;
4422;SDS011;2224;49.814;8.650;2024-01-15T07:02:41;27.60;;;13.90;;
4422;SDS011;2224;49.814;8.650;2024-01-15T07:05:06;28.77;;;16.43;;
4422;SDS011;2224;49.814;8.650;2024-01-15T07:07:32;31.80;;;14.70;;
4422;SDS011;2224;49.814;8.650;2024-01-15T07:09:57;31.20;;;15.43;;
4422;SDS011;2224;49.814;8.650;2024-01-15T07:12:22;25.57;;;14.63;;
4422;SDS011;2224;49.814;8.650;2024-01-15T07:14:48;33.17;;;14.03;;
4422;SDS011;2224;49.814;8.650;2024-01-15T07:17:14;28.80;;;14.33;;
4422;SDS011;2224;49.814;8.650;2024-01-15T07:19:40;26.45;;;13.38;;
4422;SDS011;2224;49.814;8.650;2024-01-15T07:22:06;27.20;;;14.83;;
4422;SDS011;2224;49.814;8.650;2024-01-15T07:24:31;32.40;;;16.60;;
4422;SDS011;2224;49.814;8.650;2024-01-15T07:26:59;30.77;;;14.95;;
4422;SDS011;2224;49.814;8.650;2024-01-15T07:29:24;30.87;;;14.80;;
4422;SDS011;2224;49.814;8.650;2024-01-15T07:31:52;32.50;;;16.93;;
4422;SDS011;2224;49.814;8.650;2024-01-15T07:34:18;30.15;;;14.75;;
4422;SDS011;2224;49.814;8.650;2024-01-15T07:36:44;26.63;;;14.23;;
4422;SDS011;2224;49.814;8.650;2024-01-15T07:39:09;29.13;;;15.20;;
4422;SDS011;2224;49.814;8.650;2024-01-15T07:41:34;33.60;;;16.50;;
4422;SDS011;2224;49.814;8.650;2024-01-15T07:44:00;25.33;;;14.70;;
4422;SDS011;2224;49.814;8.650;2024-01-15T07:46:25;34.47;;;17.80;;
4422;SDS011;2224;49.814;8.650;2024-01-15T07:48:50;43.00;;;20.00;;
4422;SDS011;2224;49.814;8.650;2024-01-15T07:51:21;36.58;;;17.50;;
4422;SDS011;2224;49.814;8.650;2024-01-15T07:53:46;35.37;;;18.23;;
4422;SDS011;2224;49.814;8.650;2024-01-15T07:56:12;30.70;;;14.60;;
4422;SDS011;2224;49.814;8.650;2024-01-15T07:58:37;33.43;;;15.97;;
4422;SDS011;2224;49.814;8.650;2024-01-15T08:01:02;34.03;;;15.77;;
4422;SDS011;2224;49.814;8.650;2024-01-15T08:03:28;29.80;;;15.73;;
4422;SDS011;2224;49.814;8.650;2024-01-15T08:05:53;32.53;;;15.93;;
4422;SDS011;2224;49.814;8.650;2024-01-15T08:08:19;29.43;;;15.27;;
4422;SDS011;2224;49.814;8.650;2024-01-15T08:10:46;30.58;;;14.95;;
4422;SDS011;2224;49.814;8.650;2024-01-15T08:13:11;31.33;;;15.60;;
4422;SDS011;2224;49.814;8.650;2024-01-15T08:15:37;35.00;;;17.57;;
4422;SDS011;2224;49.814;8.650;2024-01-15T08:18:02;36.30;;;18.33;;
4422;SDS011;2224;49.814;8.650;2024-01-15T08:20:27;36.03;;;18.50;;
4422;SDS011;2224;49.814;8.650;2024-01-15T08:22:53;49.70;;;22.17;;
4422;SDS011;2224;49.814;8.650;2024-01-15T08:25:18;38.70;;;19.73;;
4422;SDS011;2224;49.814;8.650;2024-01-15T08:27:43;33.10;;;16.17;;
4422;SDS011;2224;49.814;8.650;2024-01-15T08:30:09;33.03;;;15.90;;
4422;SDS011;2224;49.814;8.650;2024-01-15T08:32:35;31.98;;;15.32;;
4422;SDS011;2224;49.814;8.650;2024-01-15T08:35:05;28.25;;;15.85;;
4422;SDS011;2224;49.814;8.650;2024-01-15T08:37:31;32.23;;;15.40;;
4422;SDS011;2224;49.814;8.650;2024-01-15T08:39:56;31.80;;;15.10;;
4422;SDS011;2224;49.814;8.650;2024-01-15T08:42:21;31.57;;;17.60;;
4422;SDS011;2224;49.814;8.650;2024-01-15T08:44:47;37.57;;;20.33;;
4422;SDS011;2224;49.814;8.650;2024-01-15T08:47:12;31.90;;;18.63;;
4422;SDS011;2224;49.814;8.650;2024-01-15T08:49:37;30.77;;;16.17;;
4422;SDS011;2224;49.814;8.650;2024-01-15T08:52:03;34.60;;;16.43;;
4422;SDS011;2224;49.814;8.650;2024-01-15T08:54:28;28.47;;;16.77;;
4422;SDS011;2224;49.814;8.650;2024-01-15T08:56:53;33.47;;;15.73;;
4422;SDS011;2224;49.814;8.650;2024-01-15T08:59:19;33.43;;;16.00;;
4422;SDS011;2224;49.814;8.650;2024-01-15T09:01:49;27.25;;;15.57;;
4422;SDS011;2224;49.814;8.650;2024-01-15T09:04:15;31.10;;;17.17;;
4422;SDS011;2224;49.814;8.650;2024-01-15T09:06:40;35.30;;;17.07;;
4422;SDS011;2224;49.814;8.650;2024-01-15T09:09:09;30.83;;;16.60;;
4422;SDS011;2224;49.814;8.650;2024-01-15T09:11:35;28.73;;;15.70;;
4422;SDS011;2224;49.814;8.650;2024-01-15T09:14:00;31.23;;;16.80;;
4422;SDS011;2224;49.814;8.650;2024-01-15T09:16:26;34.27;;;15.97;;
4422;SDS011;2224;49.814;8.650;2024-01-15T09:18:51;26.10;;;15.70;;
4422;SDS011;2224;49.814;8.650;2024-01-15T09:21:16;30.93;;;15.90;;
4422;SDS011;2224;49.814;8.650;2024-01-15T09:23:42;28.23;;;14.73;;
4422;SDS011;2224;49.814;8.650;2024-01-15T09:26:08;28.93;;;15.27;;
4422;SDS011;2224;49.814;8.650;2024-01-15T09:28:33;31.30;;;14.40;;
4422;SDS011;2224;49.814;8.650;2024-01-15T09:30:58;27.50;;;16.23;;
4422;SDS011;2224;49.814;8.650;2024-01-15T09:33:24;31.23;;;15.63;;
4422;SDS011;2224;49.814;8.650;2024-01-15T09:35:49;34.97;;;17.60;;
4422;SDS011;2224;49.814;8.650;2024-01-15T09:38:14;29.83;;;15.70;;
4422;SDS011;2224;49.814;8.650;2024-01-15T09:40:40;26.80;;;15.50;;
4422;SDS011;2224;49.814;8.650;2024-01-15T09:43:08;24.65;;;15.05;;
4422;SDS011;2224;49.814;8.650;2024-01-15T09:45:33;29.57;;;17.20;;
4422;SDS011;2224;49.814;8.650;2024-01-15T09:47:59;27.73;;;16.00;;
4422;SDS011;2224;49.814;8.650;2024-01-15T09:50:24;31.50;;;16.83;;
4422;SDS011;2224;49.814;8.650;2024-01-15T09:52:49;36.00;;;18.57;;
4422;SDS011;2224;49.814;8.650;2024-01-15T09:55:15;30.40;;;16.03;;
4422;SDS011;2224;49.814;8.650;2024-01-15T09:57:42;28.25;;;15.65;;
4422;SDS011;2224;49.814;8.650;2024-01-15T10:00:09;31.30;;;16.77;;
4422;SDS011;2224;49.814;8.650;2024-01-15T10:02:36;24.58;;;15.15;;
4422;SDS011;2224;49.814;8.650;2024-01-15T10:05:01;30.90;;;16.60;;
4422;SDS011;2224;49.814;8.650;2024-01-15T10:07:27;27.08;;;15.40;;
4422;SDS011;2224;49.814;8.650;2024-01-15T10:09:54;25.58;;;15.15;;
4422;SDS011;2224;49.814;8.650;2024-01-15T10:12:21;27.50;;;15.77;;
4422;SDS011;2224;49.814;8.650;2024-01-15T10:14:47;29.58;;;15.65;;
4422;SDS011;2224;49.814;8.650;2024-01-15T10:17:14;25.15;;;15.07;;
4422;SDS011;2224;49.814;8.650;2024-01-15T10:19:40;25.15;;;13.70;;
4422;SDS011;2224;49.814;8.650;2024-01-15T10:22:06;25.58;;;14.98;;
4422;SDS011;2224;49.814;8.650;2024-01-15T10:24:34;29.20;;;16.10;;
4422;SDS011;2224;49.814;8.650;2024-01-15T10:27:07;30.23;;;17.20;;
4422;SDS011;2224;49.814;8.650;2024-01-15T10:29:33;28.50;;;16.98;;
4422;SDS011;2224;49.814;8.650;2024-01-15T10:31:58;28.83;;;16.00;;
4422;SDS011;2224;49.814;8.650;2024-01-15T10:34:24;31.00;;;17.13;;
4422;SDS011;2224;49.814;8.650;2024-01-15T10:36:50;26.93;;;15.17;;
4422;SDS011;2224;49.814;8.650;2024-01-15T10:39:20;24.73;;;14.60;;
4422;SDS011;2224;49.814;8.650;2024-01-15T10:41:51;30.30;;;17.30;;
4422;SDS011;2224;49.814;8.650;2024-01-15T10:44:17;26.80;;;16.13;;
4422;SDS011;2224;49.814;8.650;2024-01-15T10:46:43;31.98;;;16.02;;
4422;SDS011;2224;49.814;8.650;2024-01-15T10:49:09;31.13;;;16.40;;
4422;SDS011;2224;49.814;8.650;2024-01-15T10:51:35;26.30;;;14.60;;
4422;SDS011;2224;49.814;8.650;2024-01-15T10:54:01;24.77;;;14.67;;
4422;SDS011;2224;49.814;8.650;2024-01-15T10:56:27;29.90;;;16.07;;
4422;SDS011;2224;49.814;8.650;2024-01-15T10:58:53;27.00;;;14.95;;
4422;SDS011;2224;49.814;8.650;2024-01-15T11:01:19;29.08;;;15.35;;
4422;SDS011;2224;49.814;8.650;2024-01-15T11:03:45;27.73;;;16.10;;
4422;SDS011;2224;49.814;8.650;2024-01-15T11:06:18;28.02;;;15.10;;
4422;SDS011;2224;49.814;8.650;2024-01-15T11:08:50;35.53;;;15.30;;
4422;SDS011;2224;49.814;8.650;2024-01-15T11:11:16;26.20;;;14.70;;
4422;SDS011;2224;49.814;8.650;2024-01-15T11:13:42;25.58;;;14.52;;
4422;SDS011;2224;49.814;8.650;2024-01-15T11:16:12;26.45;;;15.57;;
4422;SDS011;2224;49.814;8.650;2024-01-15T11:21:22;24.27;;;15.02;;
4422;SDS011;2224;49.814;8.650;2024-01-15T11:26:37;25.60;;;13.38;;
4422;SDS011;2224;49.814;8.650;2024-01-15T11:29:09;22.60;;;12.90;;
4422;SDS011;2224;49.814;8.650;2024-01-15T11:34:09;23.30;;;13.20;;
4422;SDS011;2224;49.814;8.650;2024-01-15T11:41:53;20.42;;;13.10;;
4422;SDS011;2224;49.814;8.650;2024-01-15T11:44:20;22.80;;;12.82;;
4422;SDS011;2224;49.814;8.650;2024-01-15T11:46:48;23.07;;;13.73;;
4422;SDS011;2224;49.814;8.650;2024-01-15T11:49:26;18.65;;;12.48;;
4422;SDS011;2224;49.814;8.650;2024-01-15T11:52:15;21.10;;;13.13;;
4422;SDS011;2224;49.814;8.650;2024-01-15T11:54:42;23.40;;;13.15;;
4422;SDS011;2224;49.814;8.650;2024-01-15T11:57:21;20.58;;;13.13;;
4422;SDS011;2224;49.814;8.650;2024-01-15T11:59:55;22.08;;;12.68;;
4422;SDS011;2224;49.814;8.650;2024-01-15T12:02:20;19.33;;;12.13;;
4422;SDS011;2224;49.814;8.650;2024-01-15T12:04:47;22.80;;;12.50;;
4422;SDS011;2224;49.814;8.650;2024-01-15T12:07:12;23.30;;;12.27;;
4422;SDS011;2224;49.814;8.650;2024-01-15T12:09:42;17.37;;;11.33;;
4422;SDS011;2224;49.814;8.650;2024-01-15T12:12:09;21.20;;;11.98;;
4422;SDS011;2224;49.814;8.650;2024-01-15T12:14:40;20.40;;;12.02;;
4422;SDS011;2224;49.814;8.650;2024-01-15T12:17:05;20.03;;;11.67;;
4422;SDS011;2224;49.814;8.650;2024-01-15T12:19:31;18.60;;;10.90;;
4422;SDS011;2224;49.814;8.650;2024-01-15T12:21:56;22.50;;;13.30;;
4422;SDS011;2224;49.814;8.650;2024-01-15T12:24:22;17.60;;;12.67;;
4422;SDS011;2224;49.814;8.650;2024-01-15T12:26:47;16.13;;;10.80;;
4422;SDS011;2224;49.814;8.650;2024-01-15T12:29:12;24.67;;;14.20;;
4422;SDS011;2224;49.814;8.650;2024-01-15T12:31:37;21.17;;;13.03;;
4422;SDS011;2224;49.814;8.650;2024-01-15T12:34:03;15.93;;;10.97;;
4422;SDS011;2224;49.814;8.650;2024-01-15T12:36:31;20.00;;;11.60;;
4422;SDS011;2224;49.814;8.650;2024-01-15T12:38:59;20.73;;;12.23;;
4422;SDS011;2224;49.814;8.650;2024-01-15T12:41:25;21.67;;;11.40;;
4422;SDS011;2224;49.814;8.650;2024-01-15T12:43:50;18.20;;;12.87;;
4422;SDS011;2224;49.814;8.650;2024-01-15T12:46:16;22.70;;;13.47;;
4422;SDS011;2224;49.814;8.650;2024-01-15T12:48:41;18.87;;;11.27;;
4422;SDS011;2224;49.814;8.650;2024-01-15T12:51:06;22.00;;;12.20;;
4422;SDS011;2224;49.814;8.650;2024-01-15T12:53:33;18.33;;;11.27;;
4422;SDS011;2224;49.814;8.650;2024-01-15T12:55:58;18.60;;;11.30;;
4422;SDS011;2224;49.814;8.650;2024-01-15T12:58:23;18.00;;;11.83;;
4422;SDS011;2224;49.814;8.650;2024-01-15T13:00:49;16.53;;;9.80;;
4422;SDS011;2224;49.814;8.650;2024-01-15T13:03:14;15.27;;;10.37;;
4422;SDS011;2224;49.814;8.650;2024-01-15T13:05:40;14.00;;;9.57;;
4422;SDS011;2224;49.814;8.650;2024-01-15T13:08:06;12.60;;;9.35;;
4422;SDS011;2224;49.814;8.650;2024-01-15T13:10:31;14.77;;;10.07;;
4422;SDS011;2224;49.814;8.650;2024-01-15T13:12:56;14.60;;;10.43;;
4422;SDS011;2224;49.814;8.650;2024-01-15T13:15:22;13.00;;;8.73;;
4422;SDS011;2224;49.814;8.650;2024-01-15T13:17:47;18.10;;;11.03;;
4422;SDS011;2224;49.814;8.650;2024-01-15T13:20:12;12.90;;;9.20;;
4422;SDS011;2224;49.814;8.650;2024-01-15T13:22:38;15.43;;;8.80;;
4422;SDS011;2224;49.814;8.650;2024-01-15T13:25:05;13.85;;;9.65;;
4422;SDS011;2224;49.814;8.650;2024-01-15T13:27:32;14.77;;;9.23;;
4422;SDS011;2224;49.814;8.650;2024-01-15T13:29:59;13.00;;;9.00;;
4422;SDS011;2224;49.814;8.650;2024-01-15T13:32:25;11.50;;;8.77;;
4422;SDS011;2224;49.814;8.650;2024-01-15T13:34:54;16.67;;;9.73;;
4422;SDS011;2224;49.814;8.650;2024-01-15T13:37:20;16.17;;;8.98;;
4422;SDS011;2224;49.814;8.650;2024-01-15T13:39:45;12.93;;;8.33;;
4422;SDS011;2224;49.814;8.650;2024-01-15T13:42:11;13.73;;;8.47;;
4422;SDS011;2224;49.814;8.650;2024-01-15T13:44:36;10.90;;;7.87;;
4422;SDS011;2224;49.814;8.650;2024-01-15T13:47:02;10.30;;;8.07;;
4422;SDS011;2224;49.814;8.650;2024-01-15T13:49:28;11.45;;;7.85;;
4422;SDS011;2224;49.814;8.650;2024-01-15T13:51:53;11.63;;;7.60;;
4422;SDS011;2224;49.814;8.650;2024-01-15T13:54:19;11.03;;;8.00;;
4422;SDS011;2224;49.814;8.650;2024-01-15T13:56:45;11.15;;;8.07;;
4422;SDS011;2224;49.814;8.650;2024-01-15T13:59:12;11.48;;;7.07;;
4422;SDS011;2224;49.814;8.650;2024-01-15T14:01:37;11.40;;;7.53;;
4422;SDS011;2224;49.814;8.650;2024-01-15T14:04:03;12.10;;;8.90;;
4422;SDS011;2224;49.814;8.650;2024-01-15T14:06:28;9.50;;;7.27;;
4422;SDS011;2224;49.814;8.650;2024-01-15T14:08:53;11.60;;;7.57;;
4422;SDS011;2224;49.814;8.650;2024-01-15T14:11:19;10.83;;;7.17;;
4422;SDS011;2224;49.814;8.650;2024-01-15T14:13:44;11.63;;;7.73;;
4422;SDS011;2224;49.814;8.650;2024-01-15T14:16:10;11.60;;;8.13;;
4422;SDS011;2224;49.814;8.650;2024-01-15T14:18:36;16.93;;;8.70;;
4422;SDS011;2224;49.814;8.650;2024-01-15T14:21:01;10.87;;;7.20;;
4422;SDS011;2224;49.814;8.650;2024-01-15T14:23:26;11.07;;;7.73;;
4422;SDS011;2224;49.814;8.650;2024-01-15T14:25:52;8.33;;;7.10;;
4422;SDS011;2224;49.814;8.650;2024-01-15T14:28:17;12.03;;;7.50;;
4422;SDS011;2224;49.814;8.650;2024-01-15T14:30:43;11.70;;;8.23;;
4422;SDS011;2224;49.814;8.650;2024-01-15T14:33:08;11.17;;;6.97;;
4422;SDS011;2224;49.814;8.650;2024-01-15T14:35:33;10.90;;;7.07;;
4422;SDS011;2224;49.814;8.650;2024-01-15T14:37:59;13.10;;;7.33;;
4422;SDS011;2224;49.814;8.650;2024-01-15T14:40:27;11.53;;;7.90;;
4422;SDS011;2224;49.814;8.650;2024-01-15T14:42:52;9.23;;;6.85;;
4422;SDS011;2224;49.814;8.650;2024-01-15T14:45:18;13.20;;;6.00;;
4422;SDS011;2224;49.814;8.650;2024-01-15T14:47:43;10.57;;;6.30;;
4422;SDS011;2224;49.814;8.650;2024-01-15T14:50:09;11.33;;;6.67;;
4422;SDS011;2224;49.814;8.650;2024-01-15T14:52:35;10.25;;;6.55;;
4422;SDS011;2224;49.814;8.650;2024-01-15T14:55:01;9.63;;;6.00;;